sensor_id;sensor_type;location;lat;lon;timestamp;temperature;humidity
51029;DHT22;37054;52.054;8.600;2024-01-10T00:01:17;-3273.20;54.00
51029;DHT22;37054;52.054;8.600;2024-01-10T00:03:42;-3273.20;53.90
51029;DHT22;37054;52.054;8.600;2024-01-10T00:06:08;-3273.20;53.90
51029;DHT22;37054;52.054;8.600;2024-01-10T00:08:33;-3273.20;53.90
51029;DHT22;37054;52.054;8.600;2024-01-10T00:10:59;-3273.20;54.00
51029;DHT22;37054;52.054;8.600;2024-01-10T00:13:24;-3273.20;54.00
51029;DHT22;37054;52.054;8.600;2024-01-10T00:15:50;-3273.20;54.10
51029;DHT22;37054;52.054;8.600;2024-01-10T00:18:15;-3273.30;54.30
51029;DHT22;37054;52.054;8.600;2024-01-10T00:20:41;-3273.30;54.10
51029;DHT22;37054;52.054;8.600;2024-01-10T00:23:06;-3273.30;54.10
51029;DHT22;37054;52.054;8.600;2024-01-10T00:25:32;-3273.30;54.00
51029;DHT22;37054;52.054;8.600;2024-01-10T00:27:58;-3273.20;53.80
51029;DHT22;37054;52.054;8.600;2024-01-10T00:30:25;-3273.20;53.70
51029;DHT22;37054;52.054;8.600;2024-01-10T00:32:51;-3273.10;53.70
51029;DHT22;37054;52.054;8.600;2024-01-10T00:35:16;-3273.10;53.70
51029;DHT22;37054;52.054;8.600;2024-01-10T00:37:42;-3273.00;53.70
51029;DHT22;37054;52.054;8.600;2024-01-10T00:40:08;-3272.90;53.70
51029;DHT22;37054;52.054;8.600;2024-01-10T00:42:33;-3272.90;53.70
51029;DHT22;37054;52.054;8.600;2024-01-10T00:44:59;-3272.90;53.70
51029;DHT22;37054;52.054;8.600;2024-01-10T00:47:24;-3272.90;53.90
51029;DHT22;37054;52.054;8.600;2024-01-10T00:49:50;-3272.80;54.00
51029;DHT22;37054;52.054;8.600;2024-01-10T00:52:15;-3272.90;53.90
51029;DHT22;37054;52.054;8.600;2024-01-10T00:54:41;-3272.80;54.00
51029;DHT22;37054;52.054;8.600;2024-01-10T00:57:06;-3272.80;54.00
51029;DHT22;37054;52.054;8.600;2024-01-10T00:59:32;-3272.80;54.00
51029;DHT22;37054;52.054;8.600;2024-01-10T01:01:58;-3272.80;53.90
51029;DHT22;37054;52.054;8.600;2024-01-10T01:04:23;-3272.70;53.90
51029;DHT22;37054;52.054;8.600;2024-01-10T01:06:48;-3272.70;53.90
51029;DHT22;37054;52.054;8.600;2024-01-10T01:09:14;-3272.60;54.00
51029;DHT22;37054;52.054;8.600;2024-01-10T01:11:41;-3272.70;54.00
51029;DHT22;37054;52.054;8.600;2024-01-10T01:14:06;-3272.60;54.30
51029;DHT22;37054;52.054;8.600;2024-01-10T01:16:33;-3272.60;54.30
51029;DHT22;37054;52.054;8.600;2024-01-10T01:18:58;-3272.60;54.10
51029;DHT22;37054;52.054;8.600;2024-01-10T01:21:24;-3272.60;54.00
51029;DHT22;37054;52.054;8.600;2024-01-10T01:23:49;-3272.50;54.10
51029;DHT22;37054;52.054;8.600;2024-01-10T01:26:15;-3272.50;54.10
51029;DHT22;37054;52.054;8.600;2024-01-10T01:28:40;-3272.50;54.10
51029;DHT22;37054;52.054;8.600;2024-01-10T01:31:06;-3272.50;54.10
51029;DHT22;37054;52.054;8.600;2024-01-10T01:33:32;-3272.40;54.20
51029;DHT22;37054;52.054;8.600;2024-01-10T01:35:57;-3272.40;54.40
51029;DHT22;37054;52.054;8.600;2024-01-10T01:38:23;-3272.40;54.50
51029;DHT22;37054;52.054;8.600;2024-01-10T01:40:49;-3272.40;54.50
51029;DHT22;37054;52.054;8.600;2024-01-10T01:45:44;-3272.30;54.40
51029;DHT22;37054;52.054;8.600;2024-01-10T01:48:09;-3272.40;54.40
51029;DHT22;37054;52.054;8.600;2024-01-10T01:50:35;-3272.30;54.40
51029;DHT22;37054;52.054;8.600;2024-01-10T01:53:01;-3272.40;54.40
51029;DHT22;37054;52.054;8.600;2024-01-10T01:55:26;-3272.30;54.50
51029;DHT22;37054;52.054;8.600;2024-01-10T01:57:52;-3272.30;54.40
51029;DHT22;37054;52.054;8.600;2024-01-10T02:00:17;-3272.30;54.50
51029;DHT22;37054;52.054;8.600;2024-01-10T02:02:43;-3272.30;54.70
51029;DHT22;37054;52.054;8.600;2024-01-10T02:05:09;-3272.20;54.90
51029;DHT22;37054;52.054;8.600;2024-01-10T02:07:35;-3272.20;55.00
51029;DHT22;37054;52.054;8.600;2024-01-10T02:10:00;-3272.20;54.90
51029;DHT22;37054;52.054;8.600;2024-01-10T02:12:26;-3272.20;55.00
51029;DHT22;37054;52.054;8.600;2024-01-10T02:14:52;-3272.10;54.90
51029;DHT22;37054;52.054;8.600;2024-01-10T02:17:17;-3272.10;55.00
51029;DHT22;37054;52.054;8.600;2024-01-10T02:19:43;-3272.10;55.20
51029;DHT22;37054;52.054;8.600;2024-01-10T02:22:09;-3272.10;55.10
51029;DHT22;37054;52.054;8.600;2024-01-10T02:24:36;-3272.10;55.00
51029;DHT22;37054;52.054;8.600;2024-01-10T02:27:02;-3272.00;54.90
51029;DHT22;37054;52.054;8.600;2024-01-10T02:29:28;-3271.90;54.80
51029;DHT22;37054;52.054;8.600;2024-01-10T02:31:53;-3271.90;54.80
51029;DHT22;37054;52.054;8.600;2024-01-10T02:34:19;-3271.90;54.90
51029;DHT22;37054;52.054;8.600;2024-01-10T02:36:44;-3271.80;54.90
51029;DHT22;37054;52.054;8.600;2024-01-10T02:39:10;-3271.70;55.00
51029;DHT22;37054;52.054;8.600;2024-01-10T02:41:36;-3271.70;55.00
51029;DHT22;37054;52.054;8.600;2024-01-10T02:44:01;-3271.70;55.10
51029;DHT22;37054;52.054;8.600;2024-01-10T02:46:27;-3271.60;55.10
51029;DHT22;37054;52.054;8.600;2024-01-10T02:48:54;-3271.60;55.10
51029;DHT22;37054;52.054;8.600;2024-01-10T02:51:21;-3271.60;55.10
51029;DHT22;37054;52.054;8.600;2024-01-10T02:53:47;-3271.60;55.20
51029;DHT22;37054;52.054;8.600;2024-01-10T02:56:12;-3271.60;55.20
51029;DHT22;37054;52.054;8.600;2024-01-10T02:58:38;-3271.60;55.10
51029;DHT22;37054;52.054;8.600;2024-01-10T03:01:03;-3271.60;55.00
51029;DHT22;37054;52.054;8.600;2024-01-10T03:03:29;-3271.50;55.00
51029;DHT22;37054;52.054;8.600;2024-01-10T03:05:54;-3271.50;55.00
51029;DHT22;37054;52.054;8.600;2024-01-10T03:08:20;-3271.50;55.00
51029;DHT22;37054;52.054;8.600;2024-01-10T03:10:45;-3271.50;55.00
51029;DHT22;37054;52.054;8.600;2024-01-10T03:13:11;-3271.50;55.00
51029;DHT22;37054;52.054;8.600;2024-01-10T03:15:36;-3271.50;55.10
51029;DHT22;37054;52.054;8.600;2024-01-10T03:18:02;-3271.50;55.10
51029;DHT22;37054;52.054;8.600;2024-01-10T03:20:27;-3271.40;55.10
51029;DHT22;37054;52.054;8.600;2024-01-10T03:22:53;-3271.40;55.20
51029;DHT22;37054;52.054;8.600;2024-01-10T03:25:18;-3271.40;55.10
51029;DHT22;37054;52.054;8.600;2024-01-10T03:27:44;-3271.40;55.10
51029;DHT22;37054;52.054;8.600;2024-01-10T03:30:09;-3271.40;55.10
51029;DHT22;37054;52.054;8.600;2024-01-10T03:32:35;-3271.50;55.40
51029;DHT22;37054;52.054;8.600;2024-01-10T03:35:01;-3271.50;55.40
51029;DHT22;37054;52.054;8.600;2024-01-10T03:37:26;-3271.50;55.30
51029;DHT22;37054;52.054;8.600;2024-01-10T03:39:52;-3271.50;55.30
51029;DHT22;37054;52.054;8.600;2024-01-10T03:42:17;-3271.50;55.40
51029;DHT22;37054;52.054;8.600;2024-01-10T03:44:43;-3271.50;55.40
51029;DHT22;37054;52.054;8.600;2024-01-10T03:47:08;-3271.60;55.30
51029;DHT22;37054;52.054;8.600;2024-01-10T03:49:34;-3271.50;55.30
51029;DHT22;37054;52.054;8.600;2024-01-10T03:51:59;-3271.60;55.30
51029;DHT22;37054;52.054;8.600;2024-01-10T03:54:25;-3271.60;55.30
51029;DHT22;37054;52.054;8.600;2024-01-10T03:56:50;-3271.60;55.30
51029;DHT22;37054;52.054;8.600;2024-01-10T03:59:16;-3271.60;55.40
51029;DHT22;37054;52.054;8.600;2024-01-10T04:01:41;-3271.50;55.40
51029;DHT22;37054;52.054;8.600;2024-01-10T04:04:07;-3271.60;55.30
51029;DHT22;37054;52.054;8.600;2024-01-10T04:06:32;-3271.50;55.30
51029;DHT22;37054;52.054;8.600;2024-01-10T04:08:58;-3271.50;55.30
51029;DHT22;37054;52.054;8.600;2024-01-10T04:11:24;-3271.50;55.30
51029;DHT22;37054;52.054;8.600;2024-01-10T04:13:50;-3271.50;55.20
51029;DHT22;37054;52.054;8.600;2024-01-10T04:16:15;-3271.50;55.30
51029;DHT22;37054;52.054;8.600;2024-01-10T04:18:41;-3271.50;55.30
51029;DHT22;37054;52.054;8.600;2024-01-10T04:21:06;-3271.50;55.50
51029;DHT22;37054;52.054;8.600;2024-01-10T04:23:32;-3271.50;55.70
51029;DHT22;37054;52.054;8.600;2024-01-10T04:26:00;-3271.50;55.80
51029;DHT22;37054;52.054;8.600;2024-01-10T04:28:25;-3271.60;55.70
51029;DHT22;37054;52.054;8.600;2024-01-10T04:30:51;-3271.50;55.90
51029;DHT22;37054;52.054;8.600;2024-01-10T04:33:16;-3271.60;56.00
51029;DHT22;37054;52.054;8.600;2024-01-10T04:35:42;-3271.60;56.60
51029;DHT22;37054;52.054;8.600;2024-01-10T04:38:07;-3271.70;56.90
51029;DHT22;37054;52.054;8.600;2024-01-10T04:40:32;-3271.70;57.00
51029;DHT22;37054;52.054;8.600;2024-01-10T04:42:58;-3271.70;57.20
51029;DHT22;37054;52.054;8.600;2024-01-10T04:45:23;-3271.80;57.30
51029;DHT22;37054;52.054;8.600;2024-01-10T04:47:49;-3271.90;57.30
51029;DHT22;37054;52.054;8.600;2024-01-10T04:50:15;-3271.90;57.30
51029;DHT22;37054;52.054;8.600;2024-01-10T04:52:40;-3271.90;57.20
51029;DHT22;37054;52.054;8.600;2024-01-10T04:55:06;-3271.90;57.40
51029;DHT22;37054;52.054;8.600;2024-01-10T04:57:33;-3272.00;57.50
51029;DHT22;37054;52.054;8.600;2024-01-10T04:59:58;-3272.00;57.70
51029;DHT22;37054;52.054;8.600;2024-01-10T05:02:24;-3272.00;57.90
51029;DHT22;37054;52.054;8.600;2024-01-10T05:04:49;-3272.10;57.90
51029;DHT22;37054;52.054;8.600;2024-01-10T05:07:15;-3272.20;57.70
51029;DHT22;37054;52.054;8.600;2024-01-10T05:09:40;-3272.20;57.50
51029;DHT22;37054;52.054;8.600;2024-01-10T05:12:06;-3272.20;57.20
51029;DHT22;37054;52.054;8.600;2024-01-10T05:14:32;-3272.20;57.20
51029;DHT22;37054;52.054;8.600;2024-01-10T05:16:57;-3272.20;57.20
51029;DHT22;37054;52.054;8.600;2024-01-10T05:19:23;-3272.20;57.40
51029;DHT22;37054;52.054;8.600;2024-01-10T05:21:48;-3272.20;57.80
51029;DHT22;37054;52.054;8.600;2024-01-10T05:24:14;-3272.30;58.10
51029;DHT22;37054;52.054;8.600;2024-01-10T05:26:39;-3272.40;58.20
51029;DHT22;37054;52.054;8.600;2024-01-10T05:29:05;-3272.40;58.00
51029;DHT22;37054;52.054;8.600;2024-01-10T05:31:30;-3272.50;58.00
51029;DHT22;37054;52.054;8.600;2024-01-10T05:33:56;-3272.50;57.80
51029;DHT22;37054;52.054;8.600;2024-01-10T05:36:22;-3272.50;57.50
51029;DHT22;37054;52.054;8.600;2024-01-10T05:38:48;-3272.40;57.30
51029;DHT22;37054;52.054;8.600;2024-01-10T05:41:13;-3272.40;56.90
51029;DHT22;37054;52.054;8.600;2024-01-10T05:43:39;-3272.40;56.80
51029;DHT22;37054;52.054;8.600;2024-01-10T05:46:05;-3272.30;56.80
51029;DHT22;37054;52.054;8.600;2024-01-10T05:48:31;-3272.30;57.00
51029;DHT22;37054;52.054;8.600;2024-01-10T05:50:57;-3272.30;57.00
51029;DHT22;37054;52.054;8.600;2024-01-10T05:53:24;-3272.20;56.80
51029;DHT22;37054;52.054;8.600;2024-01-10T05:55:50;-3272.20;56.50
51029;DHT22;37054;52.054;8.600;2024-01-10T05:58:16;-3272.10;56.30
51029;DHT22;37054;52.054;8.600;2024-01-10T06:00:41;-3272.10;56.70
51029;DHT22;37054;52.054;8.600;2024-01-10T06:03:07;-3272.10;57.00
51029;DHT22;37054;52.054;8.600;2024-01-10T06:05:33;-3272.10;57.10
51029;DHT22;37054;52.054;8.600;2024-01-10T06:07:58;-3272.10;57.10
51029;DHT22;37054;52.054;8.600;2024-01-10T06:10:24;-3272.10;57.00
51029;DHT22;37054;52.054;8.600;2024-01-10T06:12:50;-3272.10;57.10
51029;DHT22;37054;52.054;8.600;2024-01-10T06:15:15;-3272.10;57.00
51029;DHT22;37054;52.054;8.600;2024-01-10T06:17:41;-3272.10;57.00
51029;DHT22;37054;52.054;8.600;2024-01-10T06:20:07;-3272.10;57.10
51029;DHT22;37054;52.054;8.600;2024-01-10T06:22:33;-3272.10;57.30
51029;DHT22;37054;52.054;8.600;2024-01-10T06:24:58;-3272.10;57.40
51029;DHT22;37054;52.054;8.600;2024-01-10T06:27:24;-3272.10;57.40
51029;DHT22;37054;52.054;8.600;2024-01-10T06:29:49;-3272.20;57.30
51029;DHT22;37054;52.054;8.600;2024-01-10T06:32:15;-3272.20;57.10
51029;DHT22;37054;52.054;8.600;2024-01-10T06:34:41;-3272.10;56.90
51029;DHT22;37054;52.054;8.600;2024-01-10T06:37:06;-3272.10;56.80
51029;DHT22;37054;52.054;8.600;2024-01-10T06:39:33;-3272.00;56.70
51029;DHT22;37054;52.054;8.600;2024-01-10T06:41:58;-3272.00;56.60
51029;DHT22;37054;52.054;8.600;2024-01-10T06:44:24;-3272.00;56.50
51029;DHT22;37054;52.054;8.600;2024-01-10T06:46:50;-3272.00;56.30
51029;DHT22;37054;52.054;8.600;2024-01-10T06:49:16;-3271.90;56.30
51029;DHT22;37054;52.054;8.600;2024-01-10T06:51:41;-3271.90;56.30
51029;DHT22;37054;52.054;8.600;2024-01-10T06:54:07;-3271.90;56.50
51029;DHT22;37054;52.054;8.600;2024-01-10T06:56:33;-3271.90;56.90
51029;DHT22;37054;52.054;8.600;2024-01-10T06:59:00;-3271.90;56.80
51029;DHT22;37054;52.054;8.600;2024-01-10T07:01:26;-3271.90;56.50
51029;DHT22;37054;52.054;8.600;2024-01-10T07:03:55;-3271.80;56.30
51029;DHT22;37054;52.054;8.600;2024-01-10T07:06:23;-3271.80;56.30
51029;DHT22;37054;52.054;8.600;2024-01-10T07:08:49;-3271.80;56.60
51029;DHT22;37054;52.054;8.600;2024-01-10T07:11:16;-3271.70;56.50
51029;DHT22;37054;52.054;8.600;2024-01-10T07:13:42;-3271.70;56.30
51029;DHT22;37054;52.054;8.600;2024-01-10T07:16:08;-3271.70;56.20
51029;DHT22;37054;52.054;8.600;2024-01-10T07:18:34;-3271.60;56.00
51029;DHT22;37054;52.054;8.600;2024-01-10T07:21:00;-3271.60;55.90
51029;DHT22;37054;52.054;8.600;2024-01-10T07:23:26;-3271.60;55.90
51029;DHT22;37054;52.054;8.600;2024-01-10T07:25:52;-3271.50;55.90
51029;DHT22;37054;52.054;8.600;2024-01-10T07:28:18;-3271.50;55.90
51029;DHT22;37054;52.054;8.600;2024-01-10T07:30:44;-3271.40;55.90
51029;DHT22;37054;52.054;8.600;2024-01-10T07:33:10;-3271.40;55.90
51029;DHT22;37054;52.054;8.600;2024-01-10T07:35:36;-3271.40;55.90
51029;DHT22;37054;52.054;8.600;2024-01-10T07:38:03;-3271.40;56.00
51029;DHT22;37054;52.054;8.600;2024-01-10T07:40:29;-3271.40;56.00
51029;DHT22;37054;52.054;8.600;2024-01-10T07:42:54;-3271.40;56.40
51029;DHT22;37054;52.054;8.600;2024-01-10T07:45:21;-3271.60;56.70
51029;DHT22;37054;52.054;8.600;2024-01-10T07:47:46;-3271.70;57.20
51029;DHT22;37054;52.054;8.600;2024-01-10T07:50:12;-3271.90;57.80
51029;DHT22;37054;52.054;8.600;2024-01-10T07:52:39;-3272.20;58.30
51029;DHT22;37054;52.054;8.600;2024-01-10T07:55:06;-3272.50;58.80
51029;DHT22;37054;52.054;8.600;2024-01-10T07:57:35;-3272.80;59.20
51029;DHT22;37054;52.054;8.600;2024-01-10T08:00:02;-3273.20;59.40
51029;DHT22;37054;52.054;8.600;2024-01-10T08:02:29;-3273.40;59.60
51029;DHT22;37054;52.054;8.600;2024-01-10T08:04:59;-3273.80;59.90
51029;DHT22;37054;52.054;8.600;2024-01-10T08:07:25;-3274.20;60.10
51029;DHT22;37054;52.054;8.600;2024-01-10T08:09:50;-3274.50;60.20
51029;DHT22;37054;52.054;8.600;2024-01-10T08:12:16;-3274.90;60.00
51029;DHT22;37054;52.054;8.600;2024-01-10T08:14:42;-3275.20;59.90
51029;DHT22;37054;52.054;8.600;2024-01-10T08:17:11;-3275.60;59.70
51029;DHT22;37054;52.054;8.600;2024-01-10T08:19:36;-3275.90;59.50
51029;DHT22;37054;52.054;8.600;2024-01-10T08:22:03;-3276.20;59.40
51029;DHT22;37054;52.054;8.600;2024-01-10T08:24:28;-3276.50;59.20
51029;DHT22;37054;52.054;8.600;2024-01-10T08:26:54;0.00;58.90
51029;DHT22;37054;52.054;8.600;2024-01-10T08:29:19;0.20;58.30
51029;DHT22;37054;52.054;8.600;2024-01-10T08:31:46;0.50;58.20
51029;DHT22;37054;52.054;8.600;2024-01-10T08:34:11;0.80;58.00
51029;DHT22;37054;52.054;8.600;2024-01-10T08:36:37;1.10;57.90
51029;DHT22;37054;52.054;8.600;2024-01-10T08:39:03;1.50;58.00
51029;DHT22;37054;52.054;8.600;2024-01-10T08:41:30;1.80;57.70
51029;DHT22;37054;52.054;8.600;2024-01-10T08:43:55;2.10;57.30
51029;DHT22;37054;52.054;8.600;2024-01-10T08:46:21;2.40;56.50
51029;DHT22;37054;52.054;8.600;2024-01-10T08:48:46;2.60;55.80
51029;DHT22;37054;52.054;8.600;2024-01-10T08:51:13;2.80;55.60
51029;DHT22;37054;52.054;8.600;2024-01-10T08:53:41;3.10;55.40
51029;DHT22;37054;52.054;8.600;2024-01-10T08:56:07;3.30;54.80
51029;DHT22;37054;52.054;8.600;2024-01-10T08:58:32;3.50;54.40
51029;DHT22;37054;52.054;8.600;2024-01-10T09:00:58;3.60;53.90
51029;DHT22;37054;52.054;8.600;2024-01-10T09:03:23;3.80;54.00
51029;DHT22;37054;52.054;8.600;2024-01-10T09:05:49;4.00;53.10
51029;DHT22;37054;52.054;8.600;2024-01-10T09:08:14;4.10;52.40
51029;DHT22;37054;52.054;8.600;2024-01-10T09:10:41;4.20;52.30
51029;DHT22;37054;52.054;8.600;2024-01-10T09:13:06;4.40;52.40
51029;DHT22;37054;52.054;8.600;2024-01-10T09:15:32;4.50;52.30
51029;DHT22;37054;52.054;8.600;2024-01-10T09:17:58;4.70;52.00
51029;DHT22;37054;52.054;8.600;2024-01-10T09:20:23;4.80;51.90
51029;DHT22;37054;52.054;8.600;2024-01-10T09:22:49;5.00;51.70
51029;DHT22;37054;52.054;8.600;2024-01-10T09:25:14;5.20;51.80
51029;DHT22;37054;52.054;8.600;2024-01-10T09:27:40;5.30;51.90
51029;DHT22;37054;52.054;8.600;2024-01-10T09:30:09;5.50;51.60
51029;DHT22;37054;52.054;8.600;2024-01-10T09:32:35;5.70;51.00
51029;DHT22;37054;52.054;8.600;2024-01-10T09:35:01;5.80;50.60
51029;DHT22;37054;52.054;8.600;2024-01-10T09:37:27;5.80;49.10
51029;DHT22;37054;52.054;8.600;2024-01-10T09:39:52;5.80;49.60
51029;DHT22;37054;52.054;8.600;2024-01-10T09:42:19;5.90;48.80
51029;DHT22;37054;52.054;8.600;2024-01-10T09:44:46;6.00;48.90
51029;DHT22;37054;52.054;8.600;2024-01-10T09:47:13;6.00;47.30
51029;DHT22;37054;52.054;8.600;2024-01-10T09:49:40;5.90;47.00
51029;DHT22;37054;52.054;8.600;2024-01-10T09:52:14;5.90;46.50
51029;DHT22;37054;52.054;8.600;2024-01-10T09:54:42;5.90;46.80
51029;DHT22;37054;52.054;8.600;2024-01-10T09:57:10;6.00;45.80
51029;DHT22;37054;52.054;8.600;2024-01-10T09:59:36;6.00;46.20
51029;DHT22;37054;52.054;8.600;2024-01-10T10:02:03;6.00;46.00
51029;DHT22;37054;52.054;8.600;2024-01-10T10:04:30;6.10;46.10
51029;DHT22;37054;52.054;8.600;2024-01-10T10:07:00;6.10;45.40
51029;DHT22;37054;52.054;8.600;2024-01-10T10:09:26;6.20;45.70
51029;DHT22;37054;52.054;8.600;2024-01-10T10:11:54;6.30;45.60
51029;DHT22;37054;52.054;8.600;2024-01-10T10:14:20;6.40;45.50
51029;DHT22;37054;52.054;8.600;2024-01-10T10:16:45;6.50;45.30
51029;DHT22;37054;52.054;8.600;2024-01-10T10:19:11;6.60;45.30
51029;DHT22;37054;52.054;8.600;2024-01-10T10:21:38;6.70;44.40
51029;DHT22;37054;52.054;8.600;2024-01-10T10:24:04;6.70;44.40
51029;DHT22;37054;52.054;8.600;2024-01-10T10:26:32;6.80;44.20
51029;DHT22;37054;52.054;8.600;2024-01-10T10:28:58;6.80;43.80
51029;DHT22;37054;52.054;8.600;2024-01-10T10:31:24;6.90;44.30
51029;DHT22;37054;52.054;8.600;2024-01-10T10:33:51;7.10;44.80
51029;DHT22;37054;52.054;8.600;2024-01-10T10:36:17;7.20;44.80
51029;DHT22;37054;52.054;8.600;2024-01-10T10:38:42;7.30;43.90
51029;DHT22;37054;52.054;8.600;2024-01-10T10:41:08;7.40;43.60
51029;DHT22;37054;52.054;8.600;2024-01-10T10:43:38;7.60;44.00
51029;DHT22;37054;52.054;8.600;2024-01-10T10:46:05;7.70;43.90
51029;DHT22;37054;52.054;8.600;2024-01-10T10:48:35;7.80;43.40
51029;DHT22;37054;52.054;8.600;2024-01-10T10:51:05;7.80;43.50
51029;DHT22;37054;52.054;8.600;2024-01-10T10:53:38;7.90;43.10
51029;DHT22;37054;52.054;8.600;2024-01-10T10:56:08;7.90;42.50
51029;DHT22;37054;52.054;8.600;2024-01-10T10:58:35;8.00;42.90
51029;DHT22;37054;52.054;8.600;2024-01-10T11:01:04;8.10;42.40
51029;DHT22;37054;52.054;8.600;2024-01-10T11:03:31;8.00;41.20
51029;DHT22;37054;52.054;8.600;2024-01-10T11:05:59;8.10;41.70
51029;DHT22;37054;52.054;8.600;2024-01-10T11:08:27;8.20;41.80
51029;DHT22;37054;52.054;8.600;2024-01-10T11:10:54;8.20;42.30
51029;DHT22;37054;52.054;8.600;2024-01-10T11:13:51;8.30;42.50
51029;DHT22;37054;52.054;8.600;2024-01-10T11:17:03;8.50;42.20
51029;DHT22;37054;52.054;8.600;2024-01-10T11:24:45;8.80;42.00
51029;DHT22;37054;52.054;8.600;2024-01-10T11:27:12;8.80;40.00
51029;DHT22;37054;52.054;8.600;2024-01-10T11:29:39;8.80;40.60
51029;DHT22;37054;52.054;8.600;2024-01-10T11:32:16;8.90;41.20
51029;DHT22;37054;52.054;8.600;2024-01-10T11:37:19;8.90;40.50
51029;DHT22;37054;52.054;8.600;2024-01-10T11:39:45;8.80;39.00
51029;DHT22;37054;52.054;8.600;2024-01-10T11:42:11;8.70;39.60
51029;DHT22;37054;52.054;8.600;2024-01-10T11:44:50;8.70;39.10
51029;DHT22;37054;52.054;8.600;2024-01-10T11:47:17;8.50;38.20
51029;DHT22;37054;52.054;8.600;2024-01-10T11:49:59;8.40;38.20
51029;DHT22;37054;52.054;8.600;2024-01-10T11:52:32;8.20;38.60
51029;DHT22;37054;52.054;8.600;2024-01-10T11:55:00;8.20;39.40
51029;DHT22;37054;52.054;8.600;2024-01-10T11:57:28;8.10;39.00
51029;DHT22;37054;52.054;8.600;2024-01-10T11:59:55;8.10;39.00
51029;DHT22;37054;52.054;8.600;2024-01-10T12:02:22;8.00;39.80
51029;DHT22;37054;52.054;8.600;2024-01-10T12:04:49;8.00;39.50
51029;DHT22;37054;52.054;8.600;2024-01-10T12:07:16;7.80;38.60
51029;DHT22;37054;52.054;8.600;2024-01-10T12:09:42;7.60;38.10
51029;DHT22;37054;52.054;8.600;2024-01-10T12:12:08;7.20;37.10
51029;DHT22;37054;52.054;8.600;2024-01-10T12:14:36;6.80;37.00
51029;DHT22;37054;52.054;8.600;2024-01-10T12:17:02;6.40;37.00
51029;DHT22;37054;52.054;8.600;2024-01-10T12:19:29;5.90;37.30
51029;DHT22;37054;52.054;8.600;2024-01-10T12:21:55;5.60;37.80
51029;DHT22;37054;52.054;8.600;2024-01-10T12:24:21;5.30;38.40
51029;DHT22;37054;52.054;8.600;2024-01-10T12:26:48;5.00;38.80
51029;DHT22;37054;52.054;8.600;2024-01-10T12:29:17;4.80;39.10
51029;DHT22;37054;52.054;8.600;2024-01-10T12:31:43;4.60;39.30
51029;DHT22;37054;52.054;8.600;2024-01-10T12:34:10;4.50;39.50
51029;DHT22;37054;52.054;8.600;2024-01-10T12:36:36;4.30;39.80
51029;DHT22;37054;52.054;8.600;2024-01-10T12:39:02;4.20;39.90
51029;DHT22;37054;52.054;8.600;2024-01-10T12:41:28;4.10;40.00
51029;DHT22;37054;52.054;8.600;2024-01-10T12:43:53;4.00;40.40
51029;DHT22;37054;52.054;8.600;2024-01-10T12:46:23;4.00;40.50
51029;DHT22;37054;52.054;8.600;2024-01-10T12:49:06;3.90;40.70
51029;DHT22;37054;52.054;8.600;2024-01-10T12:51:33;3.80;40.90
51029;DHT22;37054;52.054;8.600;2024-01-10T12:53:59;3.80;41.00
51029;DHT22;37054;52.054;8.600;2024-01-10T12:56:26;3.70;41.20
51029;DHT22;37054;52.054;8.600;2024-01-10T12:58:52;3.70;41.40
51029;DHT22;37054;52.054;8.600;2024-01-10T13:01:18;3.70;41.60
51029;DHT22;37054;52.054;8.600;2024-01-10T13:03:43;3.60;41.60
51029;DHT22;37054;52.054;8.600;2024-01-10T13:06:09;3.50;41.60
51029;DHT22;37054;52.054;8.600;2024-01-10T13:08:36;3.50;41.90
51029;DHT22;37054;52.054;8.600;2024-01-10T13:11:02;3.40;42.20
51029;DHT22;37054;52.054;8.600;2024-01-10T13:13:33;3.40;42.20
51029;DHT22;37054;52.054;8.600;2024-01-10T13:15:58;3.40;42.30
51029;DHT22;37054;52.054;8.600;2024-01-10T13:18:25;3.40;42.50
51029;DHT22;37054;52.054;8.600;2024-01-10T13:20:51;3.30;42.50
51029;DHT22;37054;52.054;8.600;2024-01-10T13:23:17;3.30;42.50
51029;DHT22;37054;52.054;8.600;2024-01-10T13:25:44;3.30;42.60
51029;DHT22;37054;52.054;8.600;2024-01-10T13:28:09;3.30;42.80
51029;DHT22;37054;52.054;8.600;2024-01-10T13:30:38;3.20;42.60
51029;DHT22;37054;52.054;8.600;2024-01-10T13:33:10;3.20;42.70
51029;DHT22;37054;52.054;8.600;2024-01-10T13:35:36;3.20;42.90
51029;DHT22;37054;52.054;8.600;2024-01-10T13:38:02;3.10;43.10
51029;DHT22;37054;52.054;8.600;2024-01-10T13:40:27;3.10;43.30
51029;DHT22;37054;52.054;8.600;2024-01-10T13:42:53;3.10;43.40
51029;DHT22;37054;52.054;8.600;2024-01-10T13:45:19;3.10;43.50
51029;DHT22;37054;52.054;8.600;2024-01-10T13:47:46;3.10;43.70
51029;DHT22;37054;52.054;8.600;2024-01-10T13:50:12;3.10;43.80
51029;DHT22;37054;52.054;8.600;2024-01-10T13:52:38;3.00;44.00
51029;DHT22;37054;52.054;8.600;2024-01-10T13:55:04;3.00;43.90
51029;DHT22;37054;52.054;8.600;2024-01-10T13:57:32;3.00;43.80
51029;DHT22;37054;52.054;8.600;2024-01-10T13:59:58;2.90;43.70
51029;DHT22;37054;52.054;8.600;2024-01-10T14:02:24;2.90;43.80
51029;DHT22;37054;52.054;8.600;2024-01-10T14:04:50;2.90;43.70
51029;DHT22;37054;52.054;8.600;2024-01-10T14:07:16;2.80;43.90
51029;DHT22;37054;52.054;8.600;2024-01-10T14:09:42;2.80;44.20
51029;DHT22;37054;52.054;8.600;2024-01-10T14:12:07;2.80;44.40
51029;DHT22;37054;52.054;8.600;2024-01-10T14:14:33;2.80;44.40
51029;DHT22;37054;52.054;8.600;2024-01-10T14:16:58;2.80;44.50
51029;DHT22;37054;52.054;8.600;2024-01-10T14:19:24;2.80;44.60
51029;DHT22;37054;52.054;8.600;2024-01-10T14:21:49;2.70;44.80
51029;DHT22;37054;52.054;8.600;2024-01-10T14:24:15;2.80;44.90
51029;DHT22;37054;52.054;8.600;2024-01-10T14:26:41;2.70;45.00
51029;DHT22;37054;52.054;8.600;2024-01-10T14:29:07;2.70;45.20
51029;DHT22;37054;52.054;8.600;2024-01-10T14:31:32;2.70;45.30
51029;DHT22;37054;52.054;8.600;2024-01-10T14:33:58;2.70;45.40
51029;DHT22;37054;52.054;8.600;2024-01-10T14:36:23;2.70;45.50
51029;DHT22;37054;52.054;8.600;2024-01-10T14:38:49;2.60;45.70
51029;DHT22;37054;52.054;8.600;2024-01-10T14:41:15;2.60;45.70
51029;DHT22;37054;52.054;8.600;2024-01-10T14:43:41;2.60;45.20
51029;DHT22;37054;52.054;8.600;2024-01-10T14:46:06;2.70;44.70
51029;DHT22;37054;52.054;8.600;2024-01-10T14:48:32;2.70;44.50
51029;DHT22;37054;52.054;8.600;2024-01-10T14:50:58;2.70;44.50
51029;DHT22;37054;52.054;8.600;2024-01-10T14:53:25;2.70;44.80
51029;DHT22;37054;52.054;8.600;2024-01-10T14:55:51;2.70;45.10
51029;DHT22;37054;52.054;8.600;2024-01-10T14:58:17;2.60;45.30
51029;DHT22;37054;52.054;8.600;2024-01-10T15:00:43;2.50;45.50
51029;DHT22;37054;52.054;8.600;2024-01-10T15:03:09;2.50;45.70
51029;DHT22;37054;52.054;8.600;2024-01-10T15:05:35;2.40;45.90
51029;DHT22;37054;52.054;8.600;2024-01-10T15:08:01;2.30;46.10
51029;DHT22;37054;52.054;8.600;2024-01-10T15:10:27;2.30;46.10
51029;DHT22;37054;52.054;8.600;2024-01-10T15:12:53;2.20;46.20
51029;DHT22;37054;52.054;8.600;2024-01-10T15:15:18;2.10;46.40
51029;DHT22;37054;52.054;8.600;2024-01-10T15:17:44;2.10;46.60